sensor_id;sensor_type;location;lat;lon;timestamp;temperature;humidity
38788;DHT22;24536;45.488;12.238;2023-09-19T00:01:46;25.00;94.40
38788;DHT22;24536;45.488;12.238;2023-09-19T00:04:12;24.90;94.40
38788;DHT22;24536;45.488;12.238;2023-09-19T00:06:40;24.90;94.50
38788;DHT22;24536;45.488;12.238;2023-09-19T00:09:06;24.90;94.50
38788;DHT22;24536;45.488;12.238;2023-09-19T00:11:36;24.90;94.50
38788;DHT22;24536;45.488;12.238;2023-09-19T00:14:01;24.80;94.50
38788;DHT22;24536;45.488;12.238;2023-09-19T00:16:28;24.80;94.60
38788;DHT22;24536;45.488;12.238;2023-09-19T00:18:53;24.80;94.50
38788;DHT22;24536;45.488;12.238;2023-09-19T00:21:19;24.80;94.50
38788;DHT22;24536;45.488;12.238;2023-09-19T00:23:45;24.80;94.50
38788;DHT22;24536;45.488;12.238;2023-09-19T00:26:10;24.80;94.40
38788;DHT22;24536;45.488;12.238;2023-09-19T00:28:36;24.80;94.40
38788;DHT22;24536;45.488;12.238;2023-09-19T00:31:02;24.80;94.40
38788;DHT22;24536;45.488;12.238;2023-09-19T00:33:28;24.80;94.30
38788;DHT22;24536;45.488;12.238;2023-09-19T00:35:56;24.80;94.30
38788;DHT22;24536;45.488;12.238;2023-09-19T00:38:23;24.80;94.20
38788;DHT22;24536;45.488;12.238;2023-09-19T00:40:53;24.80;94.10
38788;DHT22;24536;45.488;12.238;2023-09-19T00:43:19;24.70;94.10
38788;DHT22;24536;45.488;12.238;2023-09-19T00:45:48;24.70;94.00
38788;DHT22;24536;45.488;12.238;2023-09-19T00:48:15;24.80;93.90
38788;DHT22;24536;45.488;12.238;2023-09-19T00:50:43;24.70;93.80
38788;DHT22;24536;45.488;12.238;2023-09-19T00:53:14;24.70;93.70
38788;DHT22;24536;45.488;12.238;2023-09-19T00:55:40;24.70;93.60
38788;DHT22;24536;45.488;12.238;2023-09-19T00:58:08;24.70;93.50
38788;DHT22;24536;45.488;12.238;2023-09-19T01:00:35;24.60;93.60
38788;DHT22;24536;45.488;12.238;2023-09-19T01:03:01;24.60;93.50
38788;DHT22;24536;45.488;12.238;2023-09-19T01:05:28;24.60;93.40
38788;DHT22;24536;45.488;12.238;2023-09-19T01:07:53;24.70;93.20
38788;DHT22;24536;45.488;12.238;2023-09-19T01:10:20;24.70;93.30
38788;DHT22;24536;45.488;12.238;2023-09-19T01:13:22;24.70;93.20
38788;DHT22;24536;45.488;12.238;2023-09-19T01:15:42;24.70;93.10
38788;DHT22;24536;45.488;12.238;2023-09-19T01:20:53;24.70;92.90
38788;DHT22;24536;45.488;12.238;2023-09-19T01:23:55;24.70;93.00
38788;DHT22;24536;45.488;12.238;2023-09-19T01:29:38;24.60;92.90
38788;DHT22;24536;45.488;12.238;2023-09-19T01:32:06;24.60;92.90
38788;DHT22;24536;45.488;12.238;2023-09-19T01:37:13;24.60;92.90
38788;DHT22;24536;45.488;12.238;2023-09-19T01:39:40;24.60;92.90
38788;DHT22;24536;45.488;12.238;2023-09-19T01:51:00;24.60;92.60
38788;DHT22;24536;45.488;12.238;2023-09-19T01:56:25;24.50;92.60
38788;DHT22;24536;45.488;12.238;2023-09-19T01:58:56;24.50;92.60
38788;DHT22;24536;45.488;12.238;2023-09-19T02:01:25;24.50;92.50
38788;DHT22;24536;45.488;12.238;2023-09-19T02:03:52;24.50;92.60
38788;DHT22;24536;45.488;12.238;2023-09-19T02:06:18;24.50;92.50
38788;DHT22;24536;45.488;12.238;2023-09-19T02:08:45;24.50;92.50
38788;DHT22;24536;45.488;12.238;2023-09-19T02:11:11;24.50;92.40
38788;DHT22;24536;45.488;12.238;2023-09-19T02:13:38;24.50;92.50
38788;DHT22;24536;45.488;12.238;2023-09-19T02:16:04;24.50;92.40
38788;DHT22;24536;45.488;12.238;2023-09-19T02:18:30;24.50;92.50
38788;DHT22;24536;45.488;12.238;2023-09-19T02:20:57;24.50;92.40
38788;DHT22;24536;45.488;12.238;2023-09-19T02:23:24;24.40;92.30
38788;DHT22;24536;45.488;12.238;2023-09-19T02:25:54;24.40;92.40
38788;DHT22;24536;45.488;12.238;2023-09-19T02:28:20;24.40;92.40
38788;DHT22;24536;45.488;12.238;2023-09-19T02:30:48;24.40;92.40
38788;DHT22;24536;45.488;12.238;2023-09-19T02:33:16;24.40;92.50
38788;DHT22;24536;45.488;12.238;2023-09-19T02:35:45;24.40;92.40
38788;DHT22;24536;45.488;12.238;2023-09-19T02:38:11;24.40;92.40
38788;DHT22;24536;45.488;12.238;2023-09-19T02:40:37;24.40;92.40
38788;DHT22;24536;45.488;12.238;2023-09-19T02:43:03;24.40;92.40
38788;DHT22;24536;45.488;12.238;2023-09-19T02:45:30;24.40;92.50
38788;DHT22;24536;45.488;12.238;2023-09-19T02:47:57;24.40;92.40
38788;DHT22;24536;45.488;12.238;2023-09-19T02:50:23;24.30;92.50
38788;DHT22;24536;45.488;12.238;2023-09-19T02:52:49;24.30;92.60
38788;DHT22;24536;45.488;12.238;2023-09-19T02:55:16;24.20;92.60
38788;DHT22;24536;45.488;12.238;2023-09-19T02:57:53;24.30;92.60
38788;DHT22;24536;45.488;12.238;2023-09-19T03:00:22;24.30;92.60
38788;DHT22;24536;45.488;12.238;2023-09-19T03:02:55;24.20;92.50
38788;DHT22;24536;45.488;12.238;2023-09-19T03:05:22;24.20;92.60
38788;DHT22;24536;45.488;12.238;2023-09-19T03:07:49;24.20;92.60
38788;DHT22;24536;45.488;12.238;2023-09-19T03:10:19;24.20;92.60
38788;DHT22;24536;45.488;12.238;2023-09-19T03:12:49;24.20;92.70
38788;DHT22;24536;45.488;12.238;2023-09-19T03:15:15;24.10;92.80
38788;DHT22;24536;45.488;12.238;2023-09-19T03:17:46;24.10;92.90
38788;DHT22;24536;45.488;12.238;2023-09-19T03:20:13;24.10;92.90
38788;DHT22;24536;45.488;12.238;2023-09-19T03:22:40;24.00;92.90
38788;DHT22;24536;45.488;12.238;2023-09-19T03:25:07;24.00;93.00
38788;DHT22;24536;45.488;12.238;2023-09-19T03:27:36;23.90;93.00
38788;DHT22;24536;45.488;12.238;2023-09-19T03:30:04;23.90;93.10
38788;DHT22;24536;45.488;12.238;2023-09-19T03:32:37;23.80;93.10
38788;DHT22;24536;45.488;12.238;2023-09-19T03:35:08;23.80;93.20
38788;DHT22;24536;45.488;12.238;2023-09-19T03:37:36;23.80;93.10
38788;DHT22;24536;45.488;12.238;2023-09-19T03:40:03;23.80;93.10
38788;DHT22;24536;45.488;12.238;2023-09-19T03:42:31;23.80;93.10
38788;DHT22;24536;45.488;12.238;2023-09-19T03:44:57;23.80;93.20
38788;DHT22;24536;45.488;12.238;2023-09-19T03:47:22;23.80;93.20
38788;DHT22;24536;45.488;12.238;2023-09-19T03:49:48;23.70;93.20
38788;DHT22;24536;45.488;12.238;2023-09-19T03:52:14;23.60;93.30
38788;DHT22;24536;45.488;12.238;2023-09-19T03:54:43;23.60;93.40
38788;DHT22;24536;45.488;12.238;2023-09-19T03:57:10;23.60;93.40
38788;DHT22;24536;45.488;12.238;2023-09-19T03:59:38;23.60;93.50
38788;DHT22;24536;45.488;12.238;2023-09-19T04:02:03;23.60;93.50
38788;DHT22;24536;45.488;12.238;2023-09-19T04:04:30;23.50;93.50
38788;DHT22;24536;45.488;12.238;2023-09-19T04:06:55;23.50;93.50
38788;DHT22;24536;45.488;12.238;2023-09-19T04:09:21;23.50;93.50
38788;DHT22;24536;45.488;12.238;2023-09-19T04:11:47;23.50;93.60
38788;DHT22;24536;45.488;12.238;2023-09-19T04:14:13;23.50;93.50
38788;DHT22;24536;45.488;12.238;2023-09-19T04:16:38;23.50;93.60
38788;DHT22;24536;45.488;12.238;2023-09-19T04:19:04;23.40;93.60
38788;DHT22;24536;45.488;12.238;2023-09-19T04:21:31;23.40;93.60
38788;DHT22;24536;45.488;12.238;2023-09-19T04:23:57;23.40;93.60
38788;DHT22;24536;45.488;12.238;2023-09-19T04:26:23;23.30;93.60
38788;DHT22;24536;45.488;12.238;2023-09-19T04:28:48;23.40;93.70
38788;DHT22;24536;45.488;12.238;2023-09-19T04:31:14;23.30;93.60
38788;DHT22;24536;45.488;12.238;2023-09-19T04:33:40;23.30;93.60
38788;DHT22;24536;45.488;12.238;2023-09-19T04:36:06;23.30;93.60
38788;DHT22;24536;45.488;12.238;2023-09-19T04:38:33;23.30;93.60
38788;DHT22;24536;45.488;12.238;2023-09-19T04:40:58;23.30;93.60
38788;DHT22;24536;45.488;12.238;2023-09-19T04:43:24;23.30;93.60
38788;DHT22;24536;45.488;12.238;2023-09-19T04:45:50;23.30;93.70
38788;DHT22;24536;45.488;12.238;2023-09-19T04:48:16;23.30;93.70
38788;DHT22;24536;45.488;12.238;2023-09-19T04:50:43;23.30;93.70
38788;DHT22;24536;45.488;12.238;2023-09-19T04:53:09;23.40;93.70
38788;DHT22;24536;45.488;12.238;2023-09-19T04:55:35;23.40;93.70
38788;DHT22;24536;45.488;12.238;2023-09-19T04:58:01;23.30;93.70
38788;DHT22;24536;45.488;12.238;2023-09-19T05:00:28;23.30;93.70
38788;DHT22;24536;45.488;12.238;2023-09-19T05:02:56;23.30;93.80
38788;DHT22;24536;45.488;12.238;2023-09-19T05:05:22;23.30;93.80
38788;DHT22;24536;45.488;12.238;2023-09-19T05:07:49;23.30;93.80
38788;DHT22;24536;45.488;12.238;2023-09-19T05:10:15;23.30;93.80
38788;DHT22;24536;45.488;12.238;2023-09-19T05:12:45;23.40;93.80
38788;DHT22;24536;45.488;12.238;2023-09-19T05:15:14;23.40;93.80
38788;DHT22;24536;45.488;12.238;2023-09-19T05:17:52;23.40;93.90
38788;DHT22;24536;45.488;12.238;2023-09-19T05:20:20;23.40;93.90
38788;DHT22;24536;45.488;12.238;2023-09-19T05:23:01;23.50;93.90
38788;DHT22;24536;45.488;12.238;2023-09-19T05:25:35;23.50;94.00
38788;DHT22;24536;45.488;12.238;2023-09-19T05:28:08;23.40;93.60
38788;DHT22;24536;45.488;12.238;2023-09-19T05:30:34;23.40;93.70
38788;DHT22;24536;45.488;12.238;2023-09-19T05:33:08;23.40;93.70
38788;DHT22;24536;45.488;12.238;2023-09-19T05:35:35;23.30;93.70
38788;DHT22;24536;45.488;12.238;2023-09-19T05:38:05;23.30;93.80
38788;DHT22;24536;45.488;12.238;2023-09-19T05:40:34;23.30;93.80
38788;DHT22;24536;45.488;12.238;2023-09-19T05:43:00;23.30;93.90
38788;DHT22;24536;45.488;12.238;2023-09-19T05:45:27;23.30;94.00
38788;DHT22;24536;45.488;12.238;2023-09-19T05:47:53;23.30;94.10
38788;DHT22;24536;45.488;12.238;2023-09-19T05:50:29;23.20;94.30
38788;DHT22;24536;45.488;12.238;2023-09-19T05:52:55;23.30;94.30
38788;DHT22;24536;45.488;12.238;2023-09-19T05:55:22;23.30;94.40
38788;DHT22;24536;45.488;12.238;2023-09-19T05:57:51;23.40;94.30
38788;DHT22;24536;45.488;12.238;2023-09-19T06:00:19;23.40;94.30
38788;DHT22;24536;45.488;12.238;2023-09-19T06:02:53;23.40;94.30
38788;DHT22;24536;45.488;12.238;2023-09-19T06:05:19;23.40;94.40
38788;DHT22;24536;45.488;12.238;2023-09-19T06:07:45;23.40;94.40
38788;DHT22;24536;45.488;12.238;2023-09-19T06:10:12;23.40;94.50
38788;DHT22;24536;45.488;12.238;2023-09-19T06:12:42;23.40;94.50
38788;DHT22;24536;45.488;12.238;2023-09-19T06:15:12;23.40;94.60
38788;DHT22;24536;45.488;12.238;2023-09-19T06:17:46;23.40;94.70
38788;DHT22;24536;45.488;12.238;2023-09-19T06:20:12;23.40;94.90
38788;DHT22;24536;45.488;12.238;2023-09-19T06:22:41;23.40;94.80
38788;DHT22;24536;45.488;12.238;2023-09-19T06:25:08;23.40;94.90
38788;DHT22;24536;45.488;12.238;2023-09-19T06:27:37;23.50;94.90
38788;DHT22;24536;45.488;12.238;2023-09-19T06:30:03;23.50;95.00
38788;DHT22;24536;45.488;12.238;2023-09-19T06:32:28;23.60;95.00
38788;DHT22;24536;45.488;12.238;2023-09-19T06:34:54;23.60;94.90
38788;DHT22;24536;45.488;12.238;2023-09-19T06:37:21;23.70;94.80
38788;DHT22;24536;45.488;12.238;2023-09-19T06:39:47;23.70;94.80
38788;DHT22;24536;45.488;12.238;2023-09-19T06:42:15;23.70;94.70
38788;DHT22;24536;45.488;12.238;2023-09-19T06:44:42;23.70;94.80
38788;DHT22;24536;45.488;12.238;2023-09-19T06:47:08;23.70;94.90
38788;DHT22;24536;45.488;12.238;2023-09-19T06:49:35;23.70;94.90
38788;DHT22;24536;45.488;12.238;2023-09-19T06:52:01;23.70;95.00
38788;DHT22;24536;45.488;12.238;2023-09-19T06:54:28;23.70;95.00
38788;DHT22;24536;45.488;12.238;2023-09-19T06:56:57;23.70;95.10
38788;DHT22;24536;45.488;12.238;2023-09-19T06:59:24;23.70;95.00
38788;DHT22;24536;45.488;12.238;2023-09-19T07:01:50;23.80;95.00
38788;DHT22;24536;45.488;12.238;2023-09-19T07:04:16;23.80;94.90
38788;DHT22;24536;45.488;12.238;2023-09-19T07:06:49;23.90;94.80
38788;DHT22;24536;45.488;12.238;2023-09-19T07:09:15;24.00;94.80
38788;DHT22;24536;45.488;12.238;2023-09-19T07:11:41;24.00;94.70
38788;DHT22;24536;45.488;12.238;2023-09-19T07:14:08;24.10;94.50
38788;DHT22;24536;45.488;12.238;2023-09-19T07:16:37;24.00;94.60
38788;DHT22;24536;45.488;12.238;2023-09-19T07:19:04;24.00;94.60
38788;DHT22;24536;45.488;12.238;2023-09-19T07:21:30;24.10;94.60
38788;DHT22;24536;45.488;12.238;2023-09-19T07:23:59;24.10;94.60
38788;DHT22;24536;45.488;12.238;2023-09-19T07:26:26;24.20;94.60
38788;DHT22;24536;45.488;12.238;2023-09-19T07:28:53;24.20;94.50
38788;DHT22;24536;45.488;12.238;2023-09-19T07:31:19;24.20;94.50
38788;DHT22;24536;45.488;12.238;2023-09-19T07:33:45;24.20;94.50
38788;DHT22;24536;45.488;12.238;2023-09-19T07:36:12;24.30;94.50
38788;DHT22;24536;45.488;12.238;2023-09-19T07:38:41;24.40;94.50
38788;DHT22;24536;45.488;12.238;2023-09-19T07:41:08;24.50;94.20
38788;DHT22;24536;45.488;12.238;2023-09-19T07:43:37;24.60;94.00
38788;DHT22;24536;45.488;12.238;2023-09-19T07:46:07;24.60;93.60
38788;DHT22;24536;45.488;12.238;2023-09-19T07:48:37;24.60;93.70
38788;DHT22;24536;45.488;12.238;2023-09-19T07:51:07;24.60;93.70
38788;DHT22;24536;45.488;12.238;2023-09-19T07:53:35;24.70;93.70
38788;DHT22;24536;45.488;12.238;2023-09-19T07:56:06;24.80;93.40
38788;DHT22;24536;45.488;12.238;2023-09-19T07:58:32;24.90;93.50
38788;DHT22;24536;45.488;12.238;2023-09-19T08:01:10;25.00;93.60
38788;DHT22;24536;45.488;12.238;2023-09-19T08:03:36;25.20;93.60
38788;DHT22;24536;45.488;12.238;2023-09-19T08:06:10;25.30;93.40
38788;DHT22;24536;45.488;12.238;2023-09-19T08:08:36;25.30;92.80
38788;DHT22;24536;45.488;12.238;2023-09-19T08:11:03;25.40;92.90
38788;DHT22;24536;45.488;12.238;2023-09-19T08:13:40;25.50;93.00
38788;DHT22;24536;45.488;12.238;2023-09-19T08:16:12;25.50;93.00
38788;DHT22;24536;45.488;12.238;2023-09-19T08:18:38;25.70;93.20
38788;DHT22;24536;45.488;12.238;2023-09-19T08:21:05;25.90;93.20
38788;DHT22;24536;45.488;12.238;2023-09-19T08:23:33;26.00;93.20
38788;DHT22;24536;45.488;12.238;2023-09-19T08:25:59;26.10;93.00
38788;DHT22;24536;45.488;12.238;2023-09-19T08:28:28;26.20;92.80
38788;DHT22;24536;45.488;12.238;2023-09-19T08:30:55;26.30;92.10
38788;DHT22;24536;45.488;12.238;2023-09-19T08:33:21;26.30;92.40
38788;DHT22;24536;45.488;12.238;2023-09-19T08:35:46;26.40;92.50
38788;DHT22;24536;45.488;12.238;2023-09-19T08:38:12;26.50;92.50
38788;DHT22;24536;45.488;12.238;2023-09-19T08:40:39;26.50;92.30
38788;DHT22;24536;45.488;12.238;2023-09-19T08:43:07;26.50;92.40
38788;DHT22;24536;45.488;12.238;2023-09-19T08:45:34;26.50;92.30
38788;DHT22;24536;45.488;12.238;2023-09-19T08:48:23;26.50;92.30
38788;DHT22;24536;45.488;12.238;2023-09-19T08:53:49;26.60;92.20
38788;DHT22;24536;45.488;12.238;2023-09-19T08:56:18;26.60;92.00
38788;DHT22;24536;45.488;12.238;2023-09-19T08:59:16;26.60;91.70
38788;DHT22;24536;45.488;12.238;2023-09-19T09:01:49;26.70;92.10
38788;DHT22;24536;45.488;12.238;2023-09-19T09:04:19;26.80;92.00
38788;DHT22;24536;45.488;12.238;2023-09-19T09:06:45;27.00;91.80
38788;DHT22;24536;45.488;12.238;2023-09-19T09:09:14;27.10;91.70
38788;DHT22;24536;45.488;12.238;2023-09-19T09:11:40;27.20;91.40
38788;DHT22;24536;45.488;12.238;2023-09-19T09:14:07;27.30;91.00
38788;DHT22;24536;45.488;12.238;2023-09-19T09:16:36;27.40;91.00
38788;DHT22;24536;45.488;12.238;2023-09-19T09:19:02;27.50;90.40
38788;DHT22;24536;45.488;12.238;2023-09-19T09:21:28;27.60;90.20
38788;DHT22;24536;45.488;12.238;2023-09-19T09:23:54;27.70;89.90
38788;DHT22;24536;45.488;12.238;2023-09-19T09:29:04;27.90;88.80
38788;DHT22;24536;45.488;12.238;2023-09-19T09:31:30;28.00;90.00
38788;DHT22;24536;45.488;12.238;2023-09-19T09:33:57;28.20;90.10
38788;DHT22;24536;45.488;12.238;2023-09-19T09:36:38;28.40;90.00
38788;DHT22;24536;45.488;12.238;2023-09-19T09:39:05;28.60;89.70
38788;DHT22;24536;45.488;12.238;2023-09-19T09:41:44;28.80;88.80
38788;DHT22;24536;45.488;12.238;2023-09-19T09:44:18;28.90;87.20
38788;DHT22;24536;45.488;12.238;2023-09-19T09:46:46;28.80;84.90
38788;DHT22;24536;45.488;12.238;2023-09-19T09:49:25;28.60;86.00
38788;DHT22;24536;45.488;12.238;2023-09-19T09:52:02;28.70;87.30
38788;DHT22;24536;45.488;12.238;2023-09-19T09:54:33;29.00;86.80
38788;DHT22;24536;45.488;12.238;2023-09-19T09:57:06;29.20;86.90
38788;DHT22;24536;45.488;12.238;2023-09-19T09:59:59;29.30;85.10
38788;DHT22;24536;45.488;12.238;2023-09-19T10:02:41;29.40;83.40
38788;DHT22;24536;45.488;12.238;2023-09-19T10:05:20;29.50;85.20
38788;DHT22;24536;45.488;12.238;2023-09-19T10:07:46;29.70;83.90
38788;DHT22;24536;45.488;12.238;2023-09-19T10:10:33;29.80;84.50
38788;DHT22;24536;45.488;12.238;2023-09-19T10:13:11;29.90;83.90
38788;DHT22;24536;45.488;12.238;2023-09-19T10:15:48;30.10;84.30
38788;DHT22;24536;45.488;12.238;2023-09-19T10:18:24;30.30;83.90
38788;DHT22;24536;45.488;12.238;2023-09-19T10:20:51;30.50;80.30
38788;DHT22;24536;45.488;12.238;2023-09-19T10:23:18;30.40;81.00
38788;DHT22;24536;45.488;12.238;2023-09-19T10:25:52;30.30;81.90
38788;DHT22;24536;45.488;12.238;2023-09-19T10:28:20;30.00;80.70
38788;DHT22;24536;45.488;12.238;2023-09-19T10:30:51;29.80;82.10
38788;DHT22;24536;45.488;12.238;2023-09-19T10:33:18;29.70;81.90
38788;DHT22;24536;45.488;12.238;2023-09-19T10:35:51;29.60;82.20
38788;DHT22;24536;45.488;12.238;2023-09-19T10:38:23;29.70;83.30
38788;DHT22;24536;45.488;12.238;2023-09-19T10:40:51;30.00;82.80
38788;DHT22;24536;45.488;12.238;2023-09-19T10:43:19;30.30;82.30
38788;DHT22;24536;45.488;12.238;2023-09-19T10:45:47;30.40;79.10
38788;DHT22;24536;45.488;12.238;2023-09-19T10:48:15;30.50;81.10
38788;DHT22;24536;45.488;12.238;2023-09-19T10:50:45;30.80;80.60
38788;DHT22;24536;45.488;12.238;2023-09-19T10:53:12;31.10;79.50
38788;DHT22;24536;45.488;12.238;2023-09-19T10:55:39;31.30;79.90
38788;DHT22;24536;45.488;12.238;2023-09-19T10:58:08;31.60;79.20
38788;DHT22;24536;45.488;12.238;2023-09-19T11:00:57;31.80;78.40
38788;DHT22;24536;45.488;12.238;2023-09-19T11:03:27;31.80;77.00
38788;DHT22;24536;45.488;12.238;2023-09-19T11:06:11;31.60;76.30
38788;DHT22;24536;45.488;12.238;2023-09-19T11:09:00;31.20;76.60
38788;DHT22;24536;45.488;12.238;2023-09-19T11:12:04;30.50;77.80
38788;DHT22;24536;45.488;12.238;2023-09-19T11:14:38;30.00;78.80
38788;DHT22;24536;45.488;12.238;2023-09-19T11:30:44;29.90;80.10
38788;DHT22;24536;45.488;12.238;2023-09-19T11:33:21;30.40;79.90
38788;DHT22;24536;45.488;12.238;2023-09-19T11:36:08;30.90;78.60
38788;DHT22;24536;45.488;12.238;2023-09-19T11:46:54;33.10;72.90
38788;DHT22;24536;45.488;12.238;2023-09-19T11:49:32;33.40;71.60
38788;DHT22;24536;45.488;12.238;2023-09-19T11:51:59;33.30;69.90
38788;DHT22;24536;45.488;12.238;2023-09-19T11:54:31;33.10;70.90
38788;DHT22;24536;45.488;12.238;2023-09-19T11:56:58;32.70;70.90
38788;DHT22;24536;45.488;12.238;2023-09-19T11:59:27;32.30;71.60
38788;DHT22;24536;45.488;12.238;2023-09-19T12:01:57;31.90;71.90
38788;DHT22;24536;45.488;12.238;2023-09-19T12:06:59;31.60;74.40
38788;DHT22;24536;45.488;12.238;2023-09-19T12:09:25;31.80;74.10
38788;DHT22;24536;45.488;12.238;2023-09-19T12:11:51;32.10;72.40
38788;DHT22;24536;45.488;12.238;2023-09-19T12:14:26;32.30;72.80
38788;DHT22;24536;45.488;12.238;2023-09-19T12:16:55;32.50;71.20
38788;DHT22;24536;45.488;12.238;2023-09-19T12:19:22;32.80;71.80
38788;DHT22;24536;45.488;12.238;2023-09-19T12:22:14;33.00;71.10
38788;DHT22;24536;45.488;12.238;2023-09-19T12:24:40;32.70;70.50
38788;DHT22;24536;45.488;12.238;2023-09-19T12:27:09;32.30;69.80
38788;DHT22;24536;45.488;12.238;2023-09-19T12:29:44;32.00;70.80
38788;DHT22;24536;45.488;12.238;2023-09-19T12:32:10;32.00;71.50
38788;DHT22;24536;45.488;12.238;2023-09-19T12:34:36;32.30;72.20
38788;DHT22;24536;45.488;12.238;2023-09-19T12:37:12;32.60;72.50
38788;DHT22;24536;45.488;12.238;2023-09-19T12:39:47;32.80;71.40
38788;DHT22;24536;45.488;12.238;2023-09-19T12:42:19;32.80;69.70
38788;DHT22;24536;45.488;12.238;2023-09-19T12:44:47;32.50;70.30
38788;DHT22;24536;45.488;12.238;2023-09-19T12:47:18;32.40;70.50
38788;DHT22;24536;45.488;12.238;2023-09-19T12:50:16;32.30;70.20
38788;DHT22;24536;45.488;12.238;2023-09-19T12:52:48;32.10;70.00
38788;DHT22;24536;45.488;12.238;2023-09-19T12:55:26;31.80;70.20
38788;DHT22;24536;45.488;12.238;2023-09-19T13:00:37;31.40;70.90
38788;DHT22;24536;45.488;12.238;2023-09-19T13:03:26;31.30;71.10
38788;DHT22;24536;45.488;12.238;2023-09-19T13:06:04;31.10;70.80
38788;DHT22;24536;45.488;12.238;2023-09-19T13:08:31;31.00;71.70
38788;DHT22;24536;45.488;12.238;2023-09-19T13:11:14;30.80;70.60
38788;DHT22;24536;45.488;12.238;2023-09-19T13:13:45;30.80;71.50
38788;DHT22;24536;45.488;12.238;2023-09-19T13:16:13;30.70;71.80
38788;DHT22;24536;45.488;12.238;2023-09-19T13:18:50;30.60;71.80
38788;DHT22;24536;45.488;12.238;2023-09-19T13:21:32;30.70;72.40
38788;DHT22;24536;45.488;12.238;2023-09-19T13:24:22;30.70;72.60
38788;DHT22;24536;45.488;12.238;2023-09-19T13:26:48;30.70;72.40
38788;DHT22;24536;45.488;12.238;2023-09-19T13:29:15;30.70;72.20
38788;DHT22;24536;45.488;12.238;2023-09-19T13:31:49;30.60;72.00
38788;DHT22;24536;45.488;12.238;2023-09-19T13:34:15;30.60;72.10
38788;DHT22;24536;45.488;12.238;2023-09-19T13:36:43;30.60;71.90
38788;DHT22;24536;45.488;12.238;2023-09-19T13:39:08;30.60;72.40
38788;DHT22;24536;45.488;12.238;2023-09-19T13:41:38;30.60;72.40
38788;DHT22;24536;45.488;12.238;2023-09-19T13:44:04;30.60;72.50
38788;DHT22;24536;45.488;12.238;2023-09-19T13:46:31;30.60;72.80
38788;DHT22;24536;45.488;12.238;2023-09-19T13:49:02;30.60;72.50
38788;DHT22;24536;45.488;12.238;2023-09-19T13:51:31;30.60;72.40
38788;DHT22;24536;45.488;12.238;2023-09-19T13:53:58;30.60;72.60
38788;DHT22;24536;45.488;12.238;2023-09-19T13:56:25;30.60;72.50
38788;DHT22;24536;45.488;12.238;2023-09-19T13:58:54;30.60;72.20
38788;DHT22;24536;45.488;12.238;2023-09-19T14:01:20;30.50;72.00
38788;DHT22;24536;45.488;12.238;2023-09-19T14:03:45;30.50;72.70
38788;DHT22;24536;45.488;12.238;2023-09-19T14:06:13;30.50;73.20
38788;DHT22;24536;45.488;12.238;2023-09-19T14:08:38;30.60;73.30
38788;DHT22;24536;45.488;12.238;2023-09-19T14:11:08;30.50;73.50
38788;DHT22;24536;45.488;12.238;2023-09-19T14:13:34;30.50;73.80
38788;DHT22;24536;45.488;12.238;2023-09-19T14:16:04;30.40;74.00
38788;DHT22;24536;45.488;12.238;2023-09-19T14:18:31;30.40;74.20
38788;DHT22;24536;45.488;12.238;2023-09-19T14:20:57;30.40;74.60
38788;DHT22;24536;45.488;12.238;2023-09-19T14:23:22;30.40;74.60
38788;DHT22;24536;45.488;12.238;2023-09-19T14:25:50;30.30;74.60
38788;DHT22;24536;45.488;12.238;2023-09-19T14:28:15;30.40;74.40
38788;DHT22;24536;45.488;12.238;2023-09-19T14:30:41;30.30;74.20
38788;DHT22;24536;45.488;12.238;2023-09-19T14:33:07;30.30;74.40
38788;DHT22;24536;45.488;12.238;2023-09-19T14:35:33;30.30;74.70
38788;DHT22;24536;45.488;12.238;2023-09-19T14:37:58;30.20;74.60
38788;DHT22;24536;45.488;12.238;2023-09-19T14:40:24;30.10;74.80
38788;DHT22;24536;45.488;12.238;2023-09-19T14:42:51;30.10;75.10
38788;DHT22;24536;45.488;12.238;2023-09-19T14:45:16;30.10;75.10
38788;DHT22;24536;45.488;12.238;2023-09-19T14:47:45;30.00;75.40
38788;DHT22;24536;45.488;12.238;2023-09-19T14:50:11;30.00;75.50
38788;DHT22;24536;45.488;12.238;2023-09-19T14:52:38;30.00;75.10
38788;DHT22;24536;45.488;12.238;2023-09-19T14:55:06;30.00;74.50
38788;DHT22;24536;45.488;12.238;2023-09-19T14:57:32;30.00;74.40
38788;DHT22;24536;45.488;12.238;2023-09-19T14:59:58;29.90;74.50
38788;DHT22;24536;45.488;12.238;2023-09-19T15:02:24;29.90;74.70
38788;DHT22;24536;45.488;12.238;2023-09-19T15:04:51;29.90;74.70
38788;DHT22;24536;45.488;12.238;2023-09-19T15:07:17;29.90;74.70
38788;DHT22;24536;45.488;12.238;2023-09-19T15:09:43;29.90;74.80
38788;DHT22;24536;45.488;12.238;2023-09-19T15:12:09;29.90;75.00
38788;DHT22;24536;45.488;12.238;2023-09-19T15:14:40;29.90;75.50
38788;DHT22;24536;45.488;12.238;2023-09-19T15:17:07;29.90;76.10
38788;DHT22;24536;45.488;12.238;2023-09-19T15:19:33;29.90;76.50
38788;DHT22;24536;45.488;12.238;2023-09-19T15:21:58;29.90;76.80
38788;DHT22;24536;45.488;12.238;2023-09-19T15:24:24;29.90;77.90
38788;DHT22;24536;45.488;12.238;2023-09-19T15:26:52;29.90;79.00
38788;DHT22;24536;45.488;12.238;2023-09-19T15:29:18;29.80;78.80
38788;DHT22;24536;45.488;12.238;2023-09-19T15:31:45;29.80;79.20
38788;DHT22;24536;45.488;12.238;2023-09-19T15:34:11;29.70;80.50
38788;DHT22;24536;45.488;12.238;2023-09-19T15:36:39;29.60;80.20
38788;DHT22;24536;45.488;12.238;2023-09-19T15:39:07;29.50;80.40
38788;DHT22;24536;45.488;12.238;2023-09-19T15:41:38;29.40;80.90
38788;DHT22;24536;45.488;12.238;2023-09-19T15:44:10;29.20;74.60
38788;DHT22;24536;45.488;12.238;2023-09-19T15:46:35;29.10;76.30
38788;DHT22;24536;45.488;12.238;2023-09-19T15:49:02;28.90;75.00
38788;DHT22;24536;45.488;12.238;2023-09-19T15:51:28;28.80;76.00
38788;DHT22;24536;45.488;12.238;2023-09-19T15:53:55;28.60;75.80
38788;DHT22;24536;45.488;12.238;2023-09-19T15:56:22;28.50;76.40
38788;DHT22;24536;45.488;12.238;2023-09-19T15:58:50;28.30;76.40
38788;DHT22;24536;45.488;12.238;2023-09-19T16:01:16;28.20;75.90
38788;DHT22;24536;45.488;12.238;2023-09-19T16:03:46;28.00;76.30
38788;DHT22;24536;45.488;12.238;2023-09-19T16:06:16;27.90;76.70
38788;DHT22;24536;45.488;12.238;2023-09-19T16:08:49;27.70;75.70
38788;DHT22;24536;45.488;12.238;2023-09-19T16:11:16;27.60;76.40
38788;DHT22;24536;45.488;12.238;2023-09-19T16:13:43;27.40;76.70
38788;DHT22;24536;45.488;12.238;2023-09-19T16:16:14;27.40;76.90
38788;DHT22;24536;45.488;12.238;2023-09-19T16:18:55;27.30;76.90
38788;DHT22;24536;45.488;12.238;2023-09-19T16:21:23;27.30;77.00